sensor_id;sensor_type;location;lat;lon;timestamp;pressure;altitude;pressure_sealevel;temperature
77414;BMP280;66486;49.992;19.164;2023-06-22T00:01:56;99109.22;;;21.98
77414;BMP280;66486;49.992;19.164;2023-06-22T00:04:22;99104.31;;;22.13
77414;BMP280;66486;49.992;19.164;2023-06-22T00:06:48;99094.34;;;22.15
77414;BMP280;66486;49.992;19.164;2023-06-22T00:09:14;99096.72;;;21.97
77414;BMP280;66486;49.992;19.164;2023-06-22T00:11:40;99097.47;;;21.92
77414;BMP280;66486;49.992;19.164;2023-06-22T00:14:06;99094.69;;;21.86
77414;BMP280;66486;49.992;19.164;2023-06-22T00:16:32;99093.38;;;21.82
77414;BMP280;66486;49.992;19.164;2023-06-22T00:18:59;99095.75;;;21.63
77414;BMP280;66486;49.992;19.164;2023-06-22T00:21:26;99094.63;;;21.50
77414;BMP280;66486;49.992;19.164;2023-06-22T00:23:53;99089.00;;;21.59
77414;BMP280;66486;49.992;19.164;2023-06-22T00:26:19;99079.72;;;21.51
77414;BMP280;66486;49.992;19.164;2023-06-22T00:28:45;99091.97;;;21.55
77414;BMP280;66486;49.992;19.164;2023-06-22T00:31:11;99094.28;;;21.68
77414;BMP280;66486;49.992;19.164;2023-06-22T00:33:37;99076.75;;;21.54
77414;BMP280;66486;49.992;19.164;2023-06-22T00:36:03;99088.22;;;21.53
77414;BMP280;66486;49.992;19.164;2023-06-22T00:38:29;99081.38;;;21.42
77414;BMP280;66486;49.992;19.164;2023-06-22T00:40:55;99086.94;;;21.48
77414;BMP280;66486;49.992;19.164;2023-06-22T00:43:21;99084.63;;;21.41
77414;BMP280;66486;49.992;19.164;2023-06-22T00:45:47;99091.13;;;21.44
77414;BMP280;66486;49.992;19.164;2023-06-22T00:48:14;99100.56;;;21.42
77414;BMP280;66486;49.992;19.164;2023-06-22T00:50:41;99088.97;;;21.27
77414;BMP280;66486;49.992;19.164;2023-06-22T00:53:08;99092.19;;;21.26
77414;BMP280;66486;49.992;19.164;2023-06-22T00:55:36;99092.88;;;20.95
77414;BMP280;66486;49.992;19.164;2023-06-22T00:58:06;99094.84;;;21.15
77414;BMP280;66486;49.992;19.164;2023-06-22T01:00:36;99087.53;;;21.06
77414;BMP280;66486;49.992;19.164;2023-06-22T01:03:03;99098.97;;;21.05
77414;BMP280;66486;49.992;19.164;2023-06-22T01:05:31;99083.13;;;21.14
77414;BMP280;66486;49.992;19.164;2023-06-22T01:09:00;99092.38;;;21.17
77414;BMP280;66486;49.992;19.164;2023-06-22T01:11:22;99084.22;;;21.22
77414;BMP280;66486;49.992;19.164;2023-06-22T01:13:58;99084.94;;;21.23
77414;BMP280;66486;49.992;19.164;2023-06-22T01:16:28;99093.88;;;21.44
77414;BMP280;66486;49.992;19.164;2023-06-22T01:18:55;99091.75;;;21.59
77414;BMP280;66486;49.992;19.164;2023-06-22T01:21:25;99088.84;;;21.73
77414;BMP280;66486;49.992;19.164;2023-06-22T01:24:15;99088.72;;;21.88
77414;BMP280;66486;49.992;19.164;2023-06-22T01:27:12;99093.47;;;21.93
77414;BMP280;66486;49.992;19.164;2023-06-22T01:29:51;99082.06;;;22.00
77414;BMP280;66486;49.992;19.164;2023-06-22T01:32:17;99076.91;;;22.13
77414;BMP280;66486;49.992;19.164;2023-06-22T01:34:45;99073.84;;;22.00
77414;BMP280;66486;49.992;19.164;2023-06-22T01:37:13;99077.06;;;21.98
77414;BMP280;66486;49.992;19.164;2023-06-22T01:39:40;99077.38;;;22.06
77414;BMP280;66486;49.992;19.164;2023-06-22T01:42:06;99077.84;;;22.04
77414;BMP280;66486;49.992;19.164;2023-06-22T01:44:34;99086.75;;;21.94
77414;BMP280;66486;49.992;19.164;2023-06-22T01:46:59;99091.72;;;21.90
77414;BMP280;66486;49.992;19.164;2023-06-22T01:49:26;99087.75;;;21.91
77414;BMP280;66486;49.992;19.164;2023-06-22T01:51:51;99087.44;;;21.89
77414;BMP280;66486;49.992;19.164;2023-06-22T01:54:20;99092.69;;;21.87
77414;BMP280;66486;49.992;19.164;2023-06-22T01:56:45;99081.28;;;21.94
77414;BMP280;66486;49.992;19.164;2023-06-22T01:59:18;99086.00;;;21.93
77414;BMP280;66486;49.992;19.164;2023-06-22T02:01:57;99095.28;;;21.70
77414;BMP280;66486;49.992;19.164;2023-06-22T02:04:33;99099.06;;;21.73
77414;BMP280;66486;49.992;19.164;2023-06-22T02:07:00;99091.59;;;21.73
77414;BMP280;66486;49.992;19.164;2023-06-22T02:09:29;99091.34;;;21.71
77414;BMP280;66486;49.992;19.164;2023-06-22T02:11:56;99097.56;;;21.72
77414;BMP280;66486;49.992;19.164;2023-06-22T02:14:24;99109.28;;;21.72
77414;BMP280;66486;49.992;19.164;2023-06-22T02:16:51;99098.09;;;21.76
77414;BMP280;66486;49.992;19.164;2023-06-22T02:19:22;99104.88;;;21.86
77414;BMP280;66486;49.992;19.164;2023-06-22T02:21:48;99114.63;;;21.87
77414;BMP280;66486;49.992;19.164;2023-06-22T02:24:14;99122.53;;;21.79
77414;BMP280;66486;49.992;19.164;2023-06-22T02:26:41;99124.22;;;21.71
77414;BMP280;66486;49.992;19.164;2023-06-22T02:29:08;99128.25;;;21.76
77414;BMP280;66486;49.992;19.164;2023-06-22T02:31:34;99126.19;;;21.71
77414;BMP280;66486;49.992;19.164;2023-06-22T02:34:00;99133.19;;;21.72
77414;BMP280;66486;49.992;19.164;2023-06-22T02:36:25;99127.13;;;21.62
77414;BMP280;66486;49.992;19.164;2023-06-22T02:38:53;99134.94;;;21.44
77414;BMP280;66486;49.992;19.164;2023-06-22T02:41:19;99130.94;;;21.45
77414;BMP280;66486;49.992;19.164;2023-06-22T02:43:46;99129.56;;;21.29
77414;BMP280;66486;49.992;19.164;2023-06-22T02:46:13;99121.28;;;21.23
77414;BMP280;66486;49.992;19.164;2023-06-22T02:48:41;99132.84;;;21.33
77414;BMP280;66486;49.992;19.164;2023-06-22T02:51:07;99131.47;;;21.23
77414;BMP280;66486;49.992;19.164;2023-06-22T02:53:34;99127.13;;;21.11
77414;BMP280;66486;49.992;19.164;2023-06-22T02:56:02;99132.19;;;20.98
77414;BMP280;66486;49.992;19.164;2023-06-22T02:58:31;99139.31;;;20.90
77414;BMP280;66486;49.992;19.164;2023-06-22T03:01:06;99135.22;;;20.80
77414;BMP280;66486;49.992;19.164;2023-06-22T03:03:32;99140.28;;;20.87
77414;BMP280;66486;49.992;19.164;2023-06-22T03:05:58;99143.44;;;20.80
77414;BMP280;66486;49.992;19.164;2023-06-22T03:08:27;99138.13;;;20.71
77414;BMP280;66486;49.992;19.164;2023-06-22T03:10:54;99138.72;;;20.80
77414;BMP280;66486;49.992;19.164;2023-06-22T03:13:20;99154.31;;;20.74
77414;BMP280;66486;49.992;19.164;2023-06-22T03:15:46;99152.09;;;20.93
77414;BMP280;66486;49.992;19.164;2023-06-22T03:18:12;99155.16;;;21.00
77414;BMP280;66486;49.992;19.164;2023-06-22T03:20:37;99146.72;;;20.84
77414;BMP280;66486;49.992;19.164;2023-06-22T03:23:03;99154.19;;;20.63
77414;BMP280;66486;49.992;19.164;2023-06-22T03:25:30;99152.00;;;20.67
77414;BMP280;66486;49.992;19.164;2023-06-22T03:27:56;99161.56;;;20.77
77414;BMP280;66486;49.992;19.164;2023-06-22T03:30:22;99162.44;;;20.69
77414;BMP280;66486;49.992;19.164;2023-06-22T03:32:48;99158.59;;;20.61
77414;BMP280;66486;49.992;19.164;2023-06-22T03:35:14;99168.53;;;20.58
77414;BMP280;66486;49.992;19.164;2023-06-22T03:37:40;99155.72;;;20.64
77414;BMP280;66486;49.992;19.164;2023-06-22T03:40:06;99163.50;;;20.71
77414;BMP280;66486;49.992;19.164;2023-06-22T03:42:36;99161.56;;;20.77
77414;BMP280;66486;49.992;19.164;2023-06-22T03:45:02;99151.44;;;20.83
77414;BMP280;66486;49.992;19.164;2023-06-22T03:47:29;99159.00;;;20.94
77414;BMP280;66486;49.992;19.164;2023-06-22T03:49:55;99160.97;;;21.08
77414;BMP280;66486;49.992;19.164;2023-06-22T03:52:22;99167.06;;;21.23
77414;BMP280;66486;49.992;19.164;2023-06-22T03:54:48;99166.94;;;21.12
77414;BMP280;66486;49.992;19.164;2023-06-22T03:57:14;99168.97;;;21.11
77414;BMP280;66486;49.992;19.164;2023-06-22T03:59:40;99164.44;;;21.08
77414;BMP280;66486;49.992;19.164;2023-06-22T04:02:06;99172.91;;;21.10
77414;BMP280;66486;49.992;19.164;2023-06-22T04:04:32;99165.84;;;21.24
77414;BMP280;66486;49.992;19.164;2023-06-22T04:06:59;99166.19;;;21.31
77414;BMP280;66486;49.992;19.164;2023-06-22T04:09:25;99174.94;;;21.35
77414;BMP280;66486;49.992;19.164;2023-06-22T04:11:51;99170.97;;;21.36
77414;BMP280;66486;49.992;19.164;2023-06-22T04:14:17;99162.16;;;21.53
77414;BMP280;66486;49.992;19.164;2023-06-22T04:16:43;99170.41;;;21.58
77414;BMP280;66486;49.992;19.164;2023-06-22T04:19:09;99172.53;;;21.74
77414;BMP280;66486;49.992;19.164;2023-06-22T04:21:42;99173.41;;;21.86
77414;BMP280;66486;49.992;19.164;2023-06-22T04:24:10;99175.59;;;21.76
77414;BMP280;66486;49.992;19.164;2023-06-22T04:26:37;99184.00;;;21.73
77414;BMP280;66486;49.992;19.164;2023-06-22T04:29:04;99170.34;;;21.78
77414;BMP280;66486;49.992;19.164;2023-06-22T04:31:32;99168.22;;;21.93
77414;BMP280;66486;49.992;19.164;2023-06-22T04:34:03;99170.09;;;22.07
77414;BMP280;66486;49.992;19.164;2023-06-22T04:36:40;99174.38;;;22.19
77414;BMP280;66486;49.992;19.164;2023-06-22T04:39:08;99181.19;;;22.29
77414;BMP280;66486;49.992;19.164;2023-06-22T04:41:38;99184.56;;;22.50
77414;BMP280;66486;49.992;19.164;2023-06-22T04:44:10;99189.22;;;22.86
77414;BMP280;66486;49.992;19.164;2023-06-22T04:46:37;99187.66;;;22.80
77414;BMP280;66486;49.992;19.164;2023-06-22T04:49:08;99191.16;;;22.80
77414;BMP280;66486;49.992;19.164;2023-06-22T04:51:42;99191.66;;;22.73
77414;BMP280;66486;49.992;19.164;2023-06-22T04:54:09;99194.38;;;22.73
77414;BMP280;66486;49.992;19.164;2023-06-22T04:56:35;99198.59;;;22.69
77414;BMP280;66486;49.992;19.164;2023-06-22T04:59:02;99195.94;;;22.91
77414;BMP280;66486;49.992;19.164;2023-06-22T05:01:29;99196.19;;;22.87
77414;BMP280;66486;49.992;19.164;2023-06-22T05:03:58;99200.69;;;22.79
77414;BMP280;66486;49.992;19.164;2023-06-22T05:06:27;99203.94;;;22.89
77414;BMP280;66486;49.992;19.164;2023-06-22T05:08:54;99207.56;;;23.22
77414;BMP280;66486;49.992;19.164;2023-06-22T05:11:25;99208.09;;;23.38
77414;BMP280;66486;49.992;19.164;2023-06-22T05:13:51;99213.13;;;23.56
77414;BMP280;66486;49.992;19.164;2023-06-22T05:16:17;99213.41;;;23.63
77414;BMP280;66486;49.992;19.164;2023-06-22T05:18:48;99210.84;;;23.54
77414;BMP280;66486;49.992;19.164;2023-06-22T05:21:14;99216.34;;;23.54
77414;BMP280;66486;49.992;19.164;2023-06-22T05:23:40;99220.38;;;23.59
77414;BMP280;66486;49.992;19.164;2023-06-22T05:26:06;99217.34;;;23.68
77414;BMP280;66486;49.992;19.164;2023-06-22T05:28:34;99218.38;;;23.59
77414;BMP280;66486;49.992;19.164;2023-06-22T05:31:01;99218.88;;;23.91
77414;BMP280;66486;49.992;19.164;2023-06-22T05:33:26;99219.63;;;23.97
77414;BMP280;66486;49.992;19.164;2023-06-22T05:35:53;99226.84;;;24.11
77414;BMP280;66486;49.992;19.164;2023-06-22T05:38:18;99232.34;;;24.27
77414;BMP280;66486;49.992;19.164;2023-06-22T05:40:44;99236.75;;;24.64
77414;BMP280;66486;49.992;19.164;2023-06-22T05:43:10;99226.91;;;24.90
77414;BMP280;66486;49.992;19.164;2023-06-22T05:45:36;99229.34;;;25.05
77414;BMP280;66486;49.992;19.164;2023-06-22T05:48:02;99243.50;;;25.25
77414;BMP280;66486;49.992;19.164;2023-06-22T05:50:28;99237.50;;;25.21
77414;BMP280;66486;49.992;19.164;2023-06-22T05:52:54;99242.69;;;25.36
77414;BMP280;66486;49.992;19.164;2023-06-22T05:55:20;99239.38;;;25.43
77414;BMP280;66486;49.992;19.164;2023-06-22T05:57:46;99233.31;;;25.50
77414;BMP280;66486;49.992;19.164;2023-06-22T06:00:12;99244.63;;;25.46
77414;BMP280;66486;49.992;19.164;2023-06-22T06:02:39;99245.75;;;25.62
77414;BMP280;66486;49.992;19.164;2023-06-22T06:05:12;99252.25;;;25.65
77414;BMP280;66486;49.992;19.164;2023-06-22T06:07:45;99247.38;;;25.82
77414;BMP280;66486;49.992;19.164;2023-06-22T06:10:11;99251.41;;;25.75
77414;BMP280;66486;49.992;19.164;2023-06-22T06:12:37;99250.97;;;25.71
77414;BMP280;66486;49.992;19.164;2023-06-22T06:15:04;99241.78;;;25.93
77414;BMP280;66486;49.992;19.164;2023-06-22T06:17:30;99242.56;;;26.12
77414;BMP280;66486;49.992;19.164;2023-06-22T06:19:58;99248.56;;;26.40
77414;BMP280;66486;49.992;19.164;2023-06-22T06:22:24;99253.47;;;26.71
77414;BMP280;66486;49.992;19.164;2023-06-22T06:24:50;99243.94;;;26.91
77414;BMP280;66486;49.992;19.164;2023-06-22T06:27:16;99247.22;;;26.89
77414;BMP280;66486;49.992;19.164;2023-06-22T06:29:44;99251.16;;;26.75
77414;BMP280;66486;49.992;19.164;2023-06-22T06:32:13;99240.13;;;26.75
77414;BMP280;66486;49.992;19.164;2023-06-22T06:34:39;99244.69;;;26.91
77414;BMP280;66486;49.992;19.164;2023-06-22T06:37:06;99242.44;;;27.27
77414;BMP280;66486;49.992;19.164;2023-06-22T06:39:32;99240.84;;;27.63
77414;BMP280;66486;49.992;19.164;2023-06-22T06:41:58;99249.84;;;27.95
77414;BMP280;66486;49.992;19.164;2023-06-22T06:44:24;99242.19;;;28.01
77414;BMP280;66486;49.992;19.164;2023-06-22T06:46:50;99234.88;;;28.30
77414;BMP280;66486;49.992;19.164;2023-06-22T06:49:16;99234.41;;;28.52
77414;BMP280;66486;49.992;19.164;2023-06-22T06:51:41;99239.91;;;28.78
77414;BMP280;66486;49.992;19.164;2023-06-22T06:54:08;99235.66;;;28.77
77414;BMP280;66486;49.992;19.164;2023-06-22T06:56:33;99233.94;;;28.87
77414;BMP280;66486;49.992;19.164;2023-06-22T06:58:59;99231.06;;;29.13
77414;BMP280;66486;49.992;19.164;2023-06-22T07:01:25;99233.13;;;28.99
77414;BMP280;66486;49.992;19.164;2023-06-22T07:03:51;99228.38;;;29.41
77414;BMP280;66486;49.992;19.164;2023-06-22T07:06:17;99237.34;;;29.75
77414;BMP280;66486;49.992;19.164;2023-06-22T07:08:43;99231.41;;;29.51
77414;BMP280;66486;49.992;19.164;2023-06-22T07:11:09;99235.53;;;29.36
77414;BMP280;66486;49.992;19.164;2023-06-22T07:13:35;99240.88;;;28.67
77414;BMP280;66486;49.992;19.164;2023-06-22T07:16:01;99229.31;;;29.23
77414;BMP280;66486;49.992;19.164;2023-06-22T07:18:27;99226.81;;;29.81
77414;BMP280;66486;49.992;19.164;2023-06-22T07:20:53;99226.06;;;29.32
77414;BMP280;66486;49.992;19.164;2023-06-22T07:23:19;99231.78;;;29.75
77414;BMP280;66486;49.992;19.164;2023-06-22T07:25:45;99232.72;;;30.06
77414;BMP280;66486;49.992;19.164;2023-06-22T07:28:11;99236.13;;;29.91
77414;BMP280;66486;49.992;19.164;2023-06-22T07:30:37;99243.94;;;29.93
77414;BMP280;66486;49.992;19.164;2023-06-22T07:33:03;99245.56;;;29.39
77414;BMP280;66486;49.992;19.164;2023-06-22T07:35:32;99242.59;;;29.66
77414;BMP280;66486;49.992;19.164;2023-06-22T07:37:58;99245.47;;;29.73
77414;BMP280;66486;49.992;19.164;2023-06-22T07:40:24;99251.97;;;30.39
77414;BMP280;66486;49.992;19.164;2023-06-22T07:42:50;99250.09;;;28.96
77414;BMP280;66486;49.992;19.164;2023-06-22T07:45:18;99255.25;;;28.79
77414;BMP280;66486;49.992;19.164;2023-06-22T07:47:44;99249.28;;;28.88
77414;BMP280;66486;49.992;19.164;2023-06-22T07:50:10;99249.25;;;29.63
77414;BMP280;66486;49.992;19.164;2023-06-22T07:52:36;99254.28;;;29.64
77414;BMP280;66486;49.992;19.164;2023-06-22T07:55:02;99254.69;;;30.75
77414;BMP280;66486;49.992;19.164;2023-06-22T07:57:28;99254.44;;;31.16
77414;BMP280;66486;49.992;19.164;2023-06-22T08:00:03;99255.00;;;31.30
77414;BMP280;66486;49.992;19.164;2023-06-22T08:02:34;99262.75;;;30.93
77414;BMP280;66486;49.992;19.164;2023-06-22T08:05:00;99242.16;;;30.81
77414;BMP280;66486;49.992;19.164;2023-06-22T08:07:26;99266.13;;;30.56
77414;BMP280;66486;49.992;19.164;2023-06-22T08:09:51;99270.13;;;30.83
77414;BMP280;66486;49.992;19.164;2023-06-22T08:12:18;99265.78;;;30.60
77414;BMP280;66486;49.992;19.164;2023-06-22T08:14:44;99263.16;;;30.47
77414;BMP280;66486;49.992;19.164;2023-06-22T08:17:11;99253.03;;;29.93
77414;BMP280;66486;49.992;19.164;2023-06-22T08:19:37;99265.09;;;30.03
77414;BMP280;66486;49.992;19.164;2023-06-22T08:22:04;99266.47;;;30.96
77414;BMP280;66486;49.992;19.164;2023-06-22T08:24:30;99268.53;;;31.33
77414;BMP280;66486;49.992;19.164;2023-06-22T08:26:56;99269.81;;;31.02
77414;BMP280;66486;49.992;19.164;2023-06-22T08:29:22;99270.53;;;30.95
77414;BMP280;66486;49.992;19.164;2023-06-22T08:31:48;99267.75;;;31.02
77414;BMP280;66486;49.992;19.164;2023-06-22T08:34:14;99268.53;;;31.33
77414;BMP280;66486;49.992;19.164;2023-06-22T08:36:40;99270.59;;;31.55
77414;BMP280;66486;49.992;19.164;2023-06-22T08:39:08;99276.38;;;31.72
77414;BMP280;66486;49.992;19.164;2023-06-22T08:41:35;99277.56;;;32.16
77414;BMP280;66486;49.992;19.164;2023-06-22T08:44:00;99269.13;;;32.39
77414;BMP280;66486;49.992;19.164;2023-06-22T08:46:27;99272.69;;;32.32
77414;BMP280;66486;49.992;19.164;2023-06-22T08:48:58;99273.97;;;31.61
77414;BMP280;66486;49.992;19.164;2023-06-22T08:51:25;99267.56;;;31.08
77414;BMP280;66486;49.992;19.164;2023-06-22T08:53:51;99279.22;;;30.84
77414;BMP280;66486;49.992;19.164;2023-06-22T08:56:17;99277.59;;;31.03
77414;BMP280;66486;49.992;19.164;2023-06-22T08:58:43;99277.66;;;31.34
77414;BMP280;66486;49.992;19.164;2023-06-22T09:01:09;99279.28;;;30.99
77414;BMP280;66486;49.992;19.164;2023-06-22T09:03:35;99281.94;;;31.42
77414;BMP280;66486;49.992;19.164;2023-06-22T09:06:03;99269.31;;;31.71
77414;BMP280;66486;49.992;19.164;2023-06-22T09:08:29;99281.69;;;32.00
77414;BMP280;66486;49.992;19.164;2023-06-22T09:10:55;99281.94;;;32.42
77414;BMP280;66486;49.992;19.164;2023-06-22T09:13:21;99281.53;;;33.17
77414;BMP280;66486;49.992;19.164;2023-06-22T09:15:48;99266.03;;;33.24
77414;BMP280;66486;49.992;19.164;2023-06-22T09:18:14;99276.00;;;33.10
77414;BMP280;66486;49.992;19.164;2023-06-22T09:20:40;99277.06;;;32.90
77414;BMP280;66486;49.992;19.164;2023-06-22T09:23:06;99268.34;;;31.99
77414;BMP280;66486;49.992;19.164;2023-06-22T09:25:32;99266.41;;;30.02
77414;BMP280;66486;49.992;19.164;2023-06-22T09:27:57;99258.13;;;29.82
77414;BMP280;66486;49.992;19.164;2023-06-22T09:30:24;99261.97;;;30.07
77414;BMP280;66486;49.992;19.164;2023-06-22T09:32:49;99259.09;;;30.55
77414;BMP280;66486;49.992;19.164;2023-06-22T09:35:16;99249.44;;;31.60
77414;BMP280;66486;49.992;19.164;2023-06-22T09:37:42;99245.38;;;31.68
77414;BMP280;66486;49.992;19.164;2023-06-22T09:40:08;99236.91;;;32.06
77414;BMP280;66486;49.992;19.164;2023-06-22T09:42:36;99240.91;;;32.35
77414;BMP280;66486;49.992;19.164;2023-06-22T09:45:02;99235.00;;;32.23
77414;BMP280;66486;49.992;19.164;2023-06-22T09:47:29;99236.06;;;32.35
77414;BMP280;66486;49.992;19.164;2023-06-22T09:49:55;99238.06;;;31.95
77414;BMP280;66486;49.992;19.164;2023-06-22T09:52:24;99238.78;;;32.03
77414;BMP280;66486;49.992;19.164;2023-06-22T09:54:50;99224.94;;;31.06
77414;BMP280;66486;49.992;19.164;2023-06-22T09:57:15;99229.97;;;30.41
77414;BMP280;66486;49.992;19.164;2023-06-22T09:59:41;99233.34;;;30.19
77414;BMP280;66486;49.992;19.164;2023-06-22T10:02:08;99227.28;;;30.71
77414;BMP280;66486;49.992;19.164;2023-06-22T10:04:34;99240.50;;;31.84
77414;BMP280;66486;49.992;19.164;2023-06-22T10:07:01;99237.78;;;31.61
77414;BMP280;66486;49.992;19.164;2023-06-22T10:09:27;99232.38;;;32.25
77414;BMP280;66486;49.992;19.164;2023-06-22T10:11:53;99230.56;;;32.92
77414;BMP280;66486;49.992;19.164;2023-06-22T10:14:19;99224.72;;;32.73
77414;BMP280;66486;49.992;19.164;2023-06-22T10:16:45;99225.13;;;32.94
77414;BMP280;66486;49.992;19.164;2023-06-22T10:19:11;99226.84;;;32.90
77414;BMP280;66486;49.992;19.164;2023-06-22T10:21:37;99219.81;;;33.30
77414;BMP280;66486;49.992;19.164;2023-06-22T10:24:03;99217.59;;;33.29
77414;BMP280;66486;49.992;19.164;2023-06-22T10:26:32;99227.75;;;32.28
77414;BMP280;66486;49.992;19.164;2023-06-22T10:28:59;99223.53;;;32.19
77414;BMP280;66486;49.992;19.164;2023-06-22T10:31:25;99209.84;;;33.03
77414;BMP280;66486;49.992;19.164;2023-06-22T10:33:53;99211.22;;;32.30
77414;BMP280;66486;49.992;19.164;2023-06-22T10:36:19;99208.91;;;32.04
77414;BMP280;66486;49.992;19.164;2023-06-22T10:38:45;99207.28;;;30.80
77414;BMP280;66486;49.992;19.164;2023-06-22T10:41:12;99206.56;;;30.80
77414;BMP280;66486;49.992;19.164;2023-06-22T10:43:39;99205.06;;;31.69
77414;BMP280;66486;49.992;19.164;2023-06-22T10:46:04;99205.81;;;31.62
77414;BMP280;66486;49.992;19.164;2023-06-22T10:48:31;99208.53;;;32.39
77414;BMP280;66486;49.992;19.164;2023-06-22T10:50:56;99203.09;;;32.02
77414;BMP280;66486;49.992;19.164;2023-06-22T10:53:23;99203.19;;;32.66
77414;BMP280;66486;49.992;19.164;2023-06-22T10:55:48;99201.09;;;32.99
77414;BMP280;66486;49.992;19.164;2023-06-22T10:58:18;99194.63;;;33.21
77414;BMP280;66486;49.992;19.164;2023-06-22T11:00:45;99180.94;;;32.83
77414;BMP280;66486;49.992;19.164;2023-06-22T11:03:11;99194.22;;;32.03
77414;BMP280;66486;49.992;19.164;2023-06-22T11:05:38;99187.66;;;31.61
77414;BMP280;66486;49.992;19.164;2023-06-22T11:08:04;99179.69;;;31.28
77414;BMP280;66486;49.992;19.164;2023-06-22T11:10:29;99177.66;;;31.28
77414;BMP280;66486;49.992;19.164;2023-06-22T11:12:56;99182.88;;;32.09
77414;BMP280;66486;49.992;19.164;2023-06-22T11:15:24;99184.63;;;32.86
77414;BMP280;66486;49.992;19.164;2023-06-22T11:17:50;99175.91;;;33.31
77414;BMP280;66486;49.992;19.164;2023-06-22T11:20:16;99171.16;;;33.41
77414;BMP280;66486;49.992;19.164;2023-06-22T11:22:42;99181.50;;;33.06
77414;BMP280;66486;49.992;19.164;2023-06-22T11:25:08;99177.25;;;33.05
77414;BMP280;66486;49.992;19.164;2023-06-22T11:27:35;99176.56;;;33.22
77414;BMP280;66486;49.992;19.164;2023-06-22T11:30:01;99183.25;;;33.43
77414;BMP280;66486;49.992;19.164;2023-06-22T11:32:27;99180.19;;;33.66
77414;BMP280;66486;49.992;19.164;2023-06-22T11:34:53;99184.59;;;33.52
77414;BMP280;66486;49.992;19.164;2023-06-22T11:37:19;99174.47;;;33.05
77414;BMP280;66486;49.992;19.164;2023-06-22T11:39:44;99176.84;;;33.09
77414;BMP280;66486;49.992;19.164;2023-06-22T11:42:11;99177.81;;;33.04
77414;BMP280;66486;49.992;19.164;2023-06-22T11:44:37;99173.63;;;32.95
77414;BMP280;66486;49.992;19.164;2023-06-22T11:47:04;99172.63;;;33.42
77414;BMP280;66486;49.992;19.164;2023-06-22T11:49:30;99166.63;;;33.45
77414;BMP280;66486;49.992;19.164;2023-06-22T11:51:56;99162.03;;;33.74
77414;BMP280;66486;49.992;19.164;2023-06-22T11:54:22;99164.19;;;34.10
77414;BMP280;66486;49.992;19.164;2023-06-22T11:56:48;99157.75;;;34.17
77414;BMP280;66486;49.992;19.164;2023-06-22T11:59:14;99154.09;;;34.24
77414;BMP280;66486;49.992;19.164;2023-06-22T12:01:40;99156.81;;;34.05
77414;BMP280;66486;49.992;19.164;2023-06-22T12:04:06;99142.00;;;33.51
77414;BMP280;66486;49.992;19.164;2023-06-22T12:06:33;99142.00;;;33.95
77414;BMP280;66486;49.992;19.164;2023-06-22T12:08:59;99142.44;;;34.08
77414;BMP280;66486;49.992;19.164;2023-06-22T12:11:25;99142.72;;;33.86
77414;BMP280;66486;49.992;19.164;2023-06-22T12:13:51;99130.66;;;33.83
77414;BMP280;66486;49.992;19.164;2023-06-22T12:16:17;99123.91;;;33.86
77414;BMP280;66486;49.992;19.164;2023-06-22T12:18:42;99129.09;;;34.16
77414;BMP280;66486;49.992;19.164;2023-06-22T12:21:09;99119.56;;;34.02
77414;BMP280;66486;49.992;19.164;2023-06-22T12:23:34;99123.66;;;34.18
77414;BMP280;66486;49.992;19.164;2023-06-22T12:26:00;99125.88;;;34.20
77414;BMP280;66486;49.992;19.164;2023-06-22T12:28:27;99122.19;;;33.91
77414;BMP280;66486;49.992;19.164;2023-06-22T12:30:53;99127.53;;;33.62
77414;BMP280;66486;49.992;19.164;2023-06-22T12:33:19;99117.28;;;34.08
77414;BMP280;66486;49.992;19.164;2023-06-22T12:35:45;99119.41;;;34.27
77414;BMP280;66486;49.992;19.164;2023-06-22T12:38:14;99109.22;;;34.22
77414;BMP280;66486;49.992;19.164;2023-06-22T12:40:40;99106.84;;;34.45
77414;BMP280;66486;49.992;19.164;2023-06-22T12:43:06;99102.97;;;34.31
77414;BMP280;66486;49.992;19.164;2023-06-22T12:45:33;99094.50;;;34.21
77414;BMP280;66486;49.992;19.164;2023-06-22T12:48:00;99093.63;;;33.92
77414;BMP280;66486;49.992;19.164;2023-06-22T12:50:26;99100.75;;;34.03
77414;BMP280;66486;49.992;19.164;2023-06-22T12:52:52;99098.91;;;34.15
77414;BMP280;66486;49.992;19.164;2023-06-22T12:55:18;99104.09;;;33.75
77414;BMP280;66486;49.992;19.164;2023-06-22T12:57:44;99100.41;;;33.72
77414;BMP280;66486;49.992;19.164;2023-06-22T13:00:11;99091.78;;;34.31
77414;BMP280;66486;49.992;19.164;2023-06-22T13:02:37;99092.38;;;34.03
77414;BMP280;66486;49.992;19.164;2023-06-22T13:05:03;99093.13;;;34.03
77414;BMP280;66486;49.992;19.164;2023-06-22T13:07:31;99083.50;;;33.70
77414;BMP280;66486;49.992;19.164;2023-06-22T13:09:57;99084.03;;;33.86
77414;BMP280;66486;49.992;19.164;2023-06-22T13:12:23;99089.63;;;34.12
77414;BMP280;66486;49.992;19.164;2023-06-22T13:14:49;99090.47;;;32.94
77414;BMP280;66486;49.992;19.164;2023-06-22T13:17:15;99079.94;;;32.43
77414;BMP280;66486;49.992;19.164;2023-06-22T13:19:41;99088.41;;;32.77
77414;BMP280;66486;49.992;19.164;2023-06-22T13:22:26;99074.00;;;33.05
77414;BMP280;66486;49.992;19.164;2023-06-22T13:24:54;99075.88;;;32.61
77414;BMP280;66486;49.992;19.164;2023-06-22T13:27:19;99075.50;;;32.40
77414;BMP280;66486;49.992;19.164;2023-06-22T13:29:45;99064.47;;;32.91
77414;BMP280;66486;49.992;19.164;2023-06-22T13:32:11;99063.00;;;33.58
77414;BMP280;66486;49.992;19.164;2023-06-22T13:34:37;99066.97;;;34.08
77414;BMP280;66486;49.992;19.164;2023-06-22T13:37:03;99060.88;;;34.38
77414;BMP280;66486;49.992;19.164;2023-06-22T13:39:30;99066.91;;;33.99
77414;BMP280;66486;49.992;19.164;2023-06-22T13:41:57;99066.25;;;34.17
77414;BMP280;66486;49.992;19.164;2023-06-22T13:44:23;99058.03;;;34.29
77414;BMP280;66486;49.992;19.164;2023-06-22T13:46:53;99060.50;;;34.61
77414;BMP280;66486;49.992;19.164;2023-06-22T13:49:19;99064.63;;;34.50
77414;BMP280;66486;49.992;19.164;2023-06-22T13:51:45;99062.56;;;34.51
77414;BMP280;66486;49.992;19.164;2023-06-22T13:54:11;99063.13;;;34.49
77414;BMP280;66486;49.992;19.164;2023-06-22T13:56:37;99057.25;;;34.55